createdAt,value
2023-03-22T00:01:23.578Z,6.83
2023-03-22T00:03:51.867Z,4.17
2023-03-22T00:06:19.607Z,9.00
2023-03-22T00:08:50.415Z,5.67
2023-03-22T00:11:18.472Z,4.70
2023-03-22T00:13:47.003Z,4.83
2023-03-22T00:16:14.877Z,3.97
2023-03-22T00:18:42.647Z,5.73
2023-03-22T00:21:12.494Z,5.33
2023-03-22T00:23:39.928Z,3.90
2023-03-22T00:26:09.234Z,4.63
2023-03-22T00:28:36.696Z,4.30
2023-03-22T00:31:04.827Z,8.73
2023-03-22T00:33:32.967Z,3.93
2023-03-22T00:36:01.191Z,5.57
2023-03-22T00:38:42.093Z,5.77
2023-03-22T00:41:12.366Z,8.30
2023-03-22T00:43:40.077Z,6.90
2023-03-22T00:46:07.894Z,4.60
2023-03-22T00:48:35.575Z,4.50
2023-03-22T00:51:03.084Z,5.13
2023-03-22T00:53:30.558Z,6.10
2023-03-22T00:55:57.976Z,6.77
2023-03-22T00:58:26.848Z,11.00
2023-03-22T01:00:54.269Z,9.50
2023-03-22T01:03:21.963Z,6.37
2023-03-22T01:05:50.376Z,7.77
2023-03-22T01:08:17.814Z,7.47
2023-03-22T01:10:46.010Z,6.50
2023-03-22T01:13:13.742Z,6.60
2023-03-22T01:15:42.543Z,6.10
2023-03-22T01:18:10.154Z,5.20
2023-03-22T01:20:38.649Z,5.47
2023-03-22T01:23:06.742Z,7.60
2023-03-22T01:25:34.182Z,7.47
2023-03-22T01:28:02.598Z,4.90
2023-03-22T01:30:30.184Z,9.30
2023-03-22T01:32:58.992Z,5.80
2023-03-22T01:35:26.499Z,6.70
2023-03-22T01:37:53.877Z,6.40
2023-03-22T01:40:21.422Z,5.30
2023-03-22T01:42:48.848Z,9.30
2023-03-22T01:45:31.151Z,7.23
2023-03-22T01:48:01.537Z,8.77
2023-03-22T01:50:29.779Z,6.20
2023-03-22T01:52:58.317Z,5.30
2023-03-22T01:55:25.972Z,5.97
2023-03-22T01:57:54.071Z,5.67
2023-03-22T02:00:22.427Z,12.83
2023-03-22T02:02:51.375Z,8.50
2023-03-22T02:05:22.130Z,10.10
2023-03-22T02:07:49.907Z,8.43
2023-03-22T02:10:18.271Z,7.80
2023-03-22T02:12:52.559Z,9.67
2023-03-22T02:15:23.221Z,7.50
2023-03-22T02:17:59.760Z,6.13
2023-03-22T02:20:47.536Z,8.57
2023-03-22T02:23:23.464Z,9.10
2023-03-22T02:26:08.951Z,10.97
2023-03-22T02:28:40.962Z,7.47
2023-03-22T02:31:24.543Z,9.53
2023-03-22T02:33:59.101Z,9.70
2023-03-22T02:36:34.767Z,8.97
2023-03-22T02:39:08.085Z,6.23
2023-03-22T02:41:42.414Z,7.70
2023-03-22T02:44:13.405Z,7.10
2023-03-22T02:46:44.584Z,8.70
2023-03-22T02:49:15.487Z,8.13
2023-03-22T02:51:44.813Z,10.20
2023-03-22T02:54:15.294Z,8.33
2023-03-22T02:56:45.116Z,11.73
2023-03-22T02:59:13.196Z,8.37
2023-03-22T03:01:41.986Z,7.00
2023-03-22T03:04:12.032Z,8.83
2023-03-22T03:06:41.107Z,14.63
2023-03-22T03:09:09.112Z,7.60
2023-03-22T03:11:37.884Z,13.90
2023-03-22T03:14:05.355Z,7.67
2023-03-22T03:16:36.641Z,9.33
2023-03-22T03:19:08.771Z,7.20
2023-03-22T03:21:42.491Z,8.20
2023-03-22T03:24:20.641Z,7.90
2023-03-22T03:26:52.820Z,8.50
2023-03-22T03:29:23.317Z,7.70
2023-03-22T03:31:53.715Z,7.90
2023-03-22T03:34:23.215Z,10.57
2023-03-22T03:36:54.370Z,9.63
2023-03-22T03:39:23.021Z,9.13
2023-03-22T03:41:52.617Z,10.70
2023-03-22T03:44:20.355Z,10.53
2023-03-22T03:46:48.509Z,7.70
2023-03-22T03:49:17.057Z,8.20
2023-03-22T03:51:48.948Z,8.20
2023-03-22T03:54:16.372Z,9.53
2023-03-22T03:56:43.847Z,7.03
2023-03-22T03:59:12.648Z,8.27
2023-03-22T04:01:40.170Z,9.53
2023-03-22T04:04:07.743Z,8.77
2023-03-22T04:06:35.620Z,8.77
2023-03-22T04:09:05.796Z,9.83
2023-03-22T04:11:33.281Z,10.73
2023-03-22T04:14:00.744Z,10.60
2023-03-22T04:16:29.558Z,10.37
2023-03-22T04:18:56.941Z,11.10
2023-03-22T04:21:24.620Z,10.40
2023-03-22T04:23:52.131Z,10.00
2023-03-22T04:26:19.530Z,10.00
2023-03-22T04:28:46.919Z,11.20
2023-03-22T04:31:14.435Z,9.73
2023-03-22T04:33:46.850Z,11.77
2023-03-22T04:36:16.050Z,10.70
2023-03-22T04:38:43.714Z,10.33
2023-03-22T04:41:11.554Z,11.50
2023-03-22T04:43:39.274Z,12.60
2023-03-22T04:46:10.045Z,10.97
2023-03-22T04:48:37.830Z,10.60
2023-03-22T04:51:07.144Z,9.60
2023-03-22T04:53:39.670Z,11.50
2023-03-22T04:56:07.782Z,9.40
2023-03-22T04:58:35.909Z,8.20
2023-03-22T05:01:03.670Z,11.37
2023-03-22T05:03:31.301Z,15.00
2023-03-22T05:05:59.527Z,11.23
2023-03-22T05:08:29.583Z,9.23
2023-03-22T05:10:57.820Z,9.63
2023-03-22T05:13:26.317Z,10.10
2023-03-22T05:15:53.793Z,6.70
2023-03-22T05:18:21.885Z,9.20
2023-03-22T05:20:49.595Z,9.77
2023-03-22T05:23:19.138Z,12.10
2023-03-22T05:25:48.031Z,9.70
2023-03-22T05:28:15.517Z,7.20
2023-03-22T05:30:43.374Z,5.87
2023-03-22T05:33:10.955Z,6.33
2023-03-22T05:35:39.570Z,7.63
2023-03-22T05:38:07.481Z,6.33
2023-03-22T05:40:34.924Z,10.23
2023-03-22T05:43:03.727Z,8.23
2023-03-22T05:45:32.436Z,8.00
2023-03-22T05:47:59.891Z,5.30
2023-03-22T05:50:27.453Z,7.70
2023-03-22T05:52:54.956Z,7.70
2023-03-22T05:55:23.242Z,6.20
2023-03-22T05:57:51.547Z,10.00
2023-03-22T06:00:21.837Z,6.30
2023-03-22T06:02:49.700Z,6.77
2023-03-22T06:05:18.346Z,9.37
2023-03-22T06:07:45.901Z,6.77
2023-03-22T06:10:14.460Z,9.13
2023-03-22T06:12:42.095Z,5.70
2023-03-22T06:15:10.152Z,8.70
2023-03-22T06:17:38.929Z,9.80
2023-03-22T06:20:10.072Z,7.37
2023-03-22T06:22:37.853Z,10.27
2023-03-22T06:25:05.794Z,11.43
2023-03-22T06:27:33.264Z,9.93
2023-03-22T06:30:00.704Z,5.47
2023-03-22T06:32:29.001Z,7.50
2023-03-22T06:34:57.924Z,6.60
2023-03-22T06:37:26.177Z,8.70
2023-03-22T06:39:53.615Z,6.10
2023-03-22T06:42:21.064Z,8.70
2023-03-22T06:44:48.487Z,8.37
2023-03-22T06:47:15.937Z,5.67
2023-03-22T06:49:43.517Z,9.73
2023-03-22T06:52:12.406Z,7.33
2023-03-22T06:54:39.858Z,8.00
2023-03-22T06:57:07.324Z,9.33
2023-03-22T06:59:34.740Z,6.27
2023-03-22T07:02:02.174Z,6.70
2023-03-22T07:04:29.695Z,8.30
2023-03-22T07:06:57.222Z,9.50
2023-03-22T07:09:26.885Z,8.07
2023-03-22T07:11:54.283Z,6.27
2023-03-22T07:14:21.696Z,7.57
2023-03-22T07:16:49.108Z,7.80
2023-03-22T07:19:18.384Z,11.40
2023-03-22T07:21:45.923Z,6.57
2023-03-22T07:24:13.760Z,9.17
2023-03-22T07:26:42.745Z,6.10
2023-03-22T07:29:10.425Z,4.83
2023-03-22T07:31:37.969Z,5.27
2023-03-22T07:34:05.674Z,5.77
2023-03-22T07:36:33.160Z,5.13
2023-03-22T07:39:00.725Z,8.43
2023-03-22T07:41:30.197Z,7.13
2023-03-22T07:44:14.826Z,7.50
2023-03-22T07:46:44.258Z,6.40
2023-03-22T07:49:11.735Z,5.77
2023-03-22T07:51:39.404Z,5.23
2023-03-22T07:54:07.850Z,3.47
2023-03-22T07:56:35.421Z,4.17
2023-03-22T07:59:04.495Z,5.17
2023-03-22T08:01:31.911Z,9.60
2023-03-22T08:03:59.396Z,4.88
2023-03-22T08:06:26.884Z,5.40
2023-03-22T08:08:54.369Z,3.77
2023-03-22T08:11:21.877Z,7.93
2023-03-22T08:13:49.867Z,7.17
2023-03-22T08:16:18.683Z,4.03
2023-03-22T08:18:46.446Z,4.40
2023-03-22T08:21:13.894Z,3.67
2023-03-22T08:23:42.428Z,4.10
2023-03-22T08:26:10.645Z,6.50
2023-03-22T08:28:38.421Z,6.10
2023-03-22T08:31:13.198Z,5.23
2023-03-22T08:33:42.866Z,2.83
2023-03-22T08:36:12.234Z,3.70
2023-03-22T08:38:39.638Z,6.83
2023-03-22T08:41:07.144Z,2.10
2023-03-22T08:43:34.546Z,2.60
2023-03-22T08:46:02.005Z,3.53
2023-03-22T08:48:30.689Z,2.53
2023-03-22T08:50:59.522Z,1.50
2023-03-22T08:53:27.082Z,2.30
2023-03-22T08:55:58.109Z,1.60
2023-03-22T08:58:25.596Z,1.53
2023-03-22T09:00:53.200Z,4.10
2023-03-22T09:03:20.818Z,1.20
2023-03-22T09:05:48.254Z,2.00
2023-03-22T09:08:19.516Z,2.10
2023-03-22T09:10:51.229Z,1.10
2023-03-22T09:13:19.470Z,1.73
2023-03-22T09:15:47.068Z,2.67
2023-03-22T09:18:14.614Z,2.60
2023-03-22T09:20:42.429Z,2.10
2023-03-22T09:23:10.435Z,1.20
2023-03-22T09:25:39.505Z,3.60
2023-03-22T09:28:07.308Z,4.30
2023-03-22T09:30:34.831Z,0.73
2023-03-22T09:33:02.326Z,1.90
2023-03-22T09:35:29.911Z,1.70
2023-03-22T09:37:58.765Z,2.80
2023-03-22T09:40:27.818Z,3.37
2023-03-22T09:42:58.504Z,4.83
2023-03-22T09:45:32.324Z,1.90
2023-03-22T09:48:00.052Z,1.50
2023-03-22T09:50:28.879Z,1.63
2023-03-22T09:52:56.622Z,2.83
2023-03-22T09:55:29.503Z,1.47
2023-03-22T09:58:03.280Z,1.03
2023-03-22T10:00:38.239Z,1.90
2023-03-22T10:03:10.941Z,2.80
2023-03-22T10:05:40.341Z,1.87
2023-03-22T10:08:19.284Z,4.90
2023-03-22T10:10:46.739Z,1.43
2023-03-22T10:13:19.682Z,2.50
2023-03-22T10:15:47.812Z,1.30
2023-03-22T10:18:18.972Z,1.40
2023-03-22T10:20:49.561Z,1.10
2023-03-22T10:23:19.306Z,1.23
2023-03-22T10:25:47.108Z,1.60
2023-03-22T10:28:16.652Z,1.90
2023-03-22T10:30:50.900Z,1.17
2023-03-22T10:33:22.342Z,1.93
2023-03-22T10:35:50.406Z,1.20
2023-03-22T10:38:20.469Z,1.00
2023-03-22T10:40:50.399Z,1.13
2023-03-22T10:43:20.963Z,0.90
2023-03-22T10:45:49.786Z,2.40
2023-03-22T10:48:21.637Z,1.10
2023-03-22T10:50:50.287Z,1.67
2023-03-22T10:53:21.046Z,2.60
2023-03-22T10:55:48.457Z,2.00
2023-03-22T10:58:16.820Z,1.20
2023-03-22T11:00:45.012Z,1.47
2023-03-22T11:03:24.051Z,1.17
2023-03-22T11:05:58.638Z,1.37
2023-03-22T11:08:26.019Z,2.20
2023-03-22T11:10:55.148Z,1.13
2023-03-22T11:13:24.433Z,2.17
2023-03-22T11:15:53.873Z,1.67
2023-03-22T11:18:22.816Z,3.13
2023-03-22T11:20:55.183Z,1.90
2023-03-22T11:23:22.688Z,4.10
2023-03-22T11:25:51.107Z,1.00
2023-03-22T11:28:20.178Z,4.30
2023-03-22T11:31:01.277Z,1.83
2023-03-22T11:33:30.638Z,2.00
2023-03-22T11:35:58.966Z,1.53
2023-03-22T11:38:31.992Z,1.77
2023-03-22T11:41:01.259Z,1.40
2023-03-22T11:43:32.456Z,2.73
2023-03-22T11:46:01.044Z,1.13
2023-03-22T11:48:31.519Z,1.30
2023-03-22T11:51:05.334Z,1.10
2023-03-22T11:53:34.088Z,2.53
2023-03-22T11:56:03.119Z,0.80
2023-03-22T11:58:43.661Z,2.50
2023-03-22T12:01:14.491Z,1.10
2023-03-22T12:03:44.359Z,2.60
2023-03-22T12:06:17.895Z,1.77
2023-03-22T12:08:47.508Z,1.73
2023-03-22T12:11:16.915Z,1.70
2023-03-22T12:13:46.008Z,1.30
2023-03-22T12:16:15.261Z,1.67
2023-03-22T12:18:47.176Z,1.67
2023-03-22T12:21:15.696Z,4.17
2023-03-22T12:23:43.416Z,1.43
2023-03-22T12:26:15.452Z,4.00
2023-03-22T12:28:44.901Z,3.27
2023-03-22T12:31:14.869Z,3.73
2023-03-22T12:33:45.860Z,1.87
2023-03-22T12:36:17.008Z,1.63
2023-03-22T12:38:48.329Z,1.53
2023-03-22T12:41:17.452Z,1.20
2023-03-22T12:43:52.065Z,2.43
2023-03-22T12:46:21.403Z,2.90
2023-03-22T12:48:51.761Z,2.50
2023-03-22T12:51:19.265Z,1.13
2023-03-22T12:53:47.867Z,3.33
2023-03-22T12:56:16.690Z,1.10
2023-03-22T12:58:47.511Z,3.40
2023-03-22T13:01:21.935Z,1.57
2023-03-22T13:03:52.139Z,1.63
2023-03-22T13:06:31.094Z,1.40
2023-03-22T13:09:03.135Z,1.57
2023-03-22T13:11:30.550Z,2.40
2023-03-22T13:13:57.992Z,3.90
2023-03-22T13:16:48.306Z,1.43
2023-03-22T13:19:28.725Z,1.87
2023-03-22T13:22:11.105Z,2.63
2023-03-22T13:24:58.345Z,10.20
2023-03-22T13:27:35.497Z,2.40
2023-03-22T13:30:07.994Z,4.17
2023-03-22T13:32:37.621Z,2.63
2023-03-22T13:35:21.691Z,2.10
2023-03-22T13:37:50.430Z,2.77
2023-03-22T13:40:27.231Z,3.97
2023-03-22T13:42:54.715Z,2.93
2023-03-22T13:45:33.393Z,1.80
2023-03-22T13:48:05.336Z,3.43
2023-03-22T13:50:34.851Z,6.33
2023-03-22T13:53:04.105Z,3.10
2023-03-22T13:55:41.189Z,3.83
2023-03-22T13:58:11.400Z,1.10
2023-03-22T14:00:41.864Z,1.27
2023-03-22T14:03:14.381Z,1.20
2023-03-22T14:05:45.070Z,3.30
2023-03-22T14:08:20.344Z,4.00
2023-03-22T14:10:51.285Z,1.63
2023-03-22T14:13:23.744Z,3.17
2023-03-22T14:15:52.472Z,1.30
2023-03-22T14:18:22.130Z,1.83
2023-03-22T14:20:52.956Z,1.73
